sensor_id;sensor_type;location;lat;lon;timestamp;P1;durP1;ratioP1;P2;durP2;ratioP2
9968;SDS011;5025;48.890;9.278;2022-12-18T00:00:57;50.87;;;29.80;;
9968;SDS011;5025;48.890;9.278;2022-12-18T00:03:22;58.90;;;34.37;;
9968;SDS011;5025;48.890;9.278;2022-12-18T00:05:50;55.03;;;31.37;;
9968;SDS011;5025;48.890;9.278;2022-12-18T00:08:17;53.07;;;30.20;;
9968;SDS011;5025;48.890;9.278;2022-12-18T00:10:43;45.27;;;28.43;;
9968;SDS011;5025;48.890;9.278;2022-12-18T00:13:10;48.03;;;28.07;;
9968;SDS011;5025;48.890;9.278;2022-12-18T00:15:36;46.83;;;27.50;;
9968;SDS011;5025;48.890;9.278;2022-12-18T00:18:03;42.13;;;26.63;;
9968;SDS011;5025;48.890;9.278;2022-12-18T00:20:29;44.03;;;26.53;;
9968;SDS011;5025;48.890;9.278;2022-12-18T00:22:54;45.10;;;26.43;;
9968;SDS011;5025;48.890;9.278;2022-12-18T00:25:20;41.27;;;25.33;;
9968;SDS011;5025;48.890;9.278;2022-12-18T00:27:46;46.30;;;26.50;;
9968;SDS011;5025;48.890;9.278;2022-12-18T00:30:11;45.60;;;28.23;;
9968;SDS011;5025;48.890;9.278;2022-12-18T00:32:37;45.03;;;27.47;;
9968;SDS011;5025;48.890;9.278;2022-12-18T00:35:03;44.73;;;26.90;;
9968;SDS011;5025;48.890;9.278;2022-12-18T00:37:29;50.83;;;28.13;;
9968;SDS011;5025;48.890;9.278;2022-12-18T00:39:54;46.60;;;28.27;;
9968;SDS011;5025;48.890;9.278;2022-12-18T00:42:19;48.93;;;28.20;;
9968;SDS011;5025;48.890;9.278;2022-12-18T00:45:03;43.20;;;26.57;;
9968;SDS011;5025;48.890;9.278;2022-12-18T00:47:29;46.67;;;28.33;;
9968;SDS011;5025;48.890;9.278;2022-12-18T00:49:54;43.77;;;27.73;;
9968;SDS011;5025;48.890;9.278;2022-12-18T00:52:20;44.37;;;26.13;;
9968;SDS011;5025;48.890;9.278;2022-12-18T00:54:45;37.80;;;24.90;;
9968;SDS011;5025;48.890;9.278;2022-12-18T00:57:10;41.00;;;25.53;;
9968;SDS011;5025;48.890;9.278;2022-12-18T00:59:35;48.53;;;28.00;;
9968;SDS011;5025;48.890;9.278;2022-12-18T01:02:01;47.03;;;28.87;;
9968;SDS011;5025;48.890;9.278;2022-12-18T01:04:26;45.80;;;27.33;;
9968;SDS011;5025;48.890;9.278;2022-12-18T01:06:51;47.20;;;27.97;;
9968;SDS011;5025;48.890;9.278;2022-12-18T01:09:17;45.93;;;27.93;;
9968;SDS011;5025;48.890;9.278;2022-12-18T01:11:42;46.87;;;27.37;;
9968;SDS011;5025;48.890;9.278;2022-12-18T01:14:07;45.20;;;26.03;;
9968;SDS011;5025;48.890;9.278;2022-12-18T01:16:33;39.87;;;25.73;;
9968;SDS011;5025;48.890;9.278;2022-12-18T01:18:58;43.03;;;26.43;;
9968;SDS011;5025;48.890;9.278;2022-12-18T01:21:24;41.40;;;26.97;;
9968;SDS011;5025;48.890;9.278;2022-12-18T01:23:55;43.77;;;25.93;;
9968;SDS011;5025;48.890;9.278;2022-12-18T01:26:21;45.03;;;26.80;;
9968;SDS011;5025;48.890;9.278;2022-12-18T01:28:47;44.23;;;27.30;;
9968;SDS011;5025;48.890;9.278;2022-12-18T01:33:47;42.00;;;25.57;;
9968;SDS011;5025;48.890;9.278;2022-12-18T01:36:19;37.13;;;23.77;;
9968;SDS011;5025;48.890;9.278;2022-12-18T01:38:46;41.43;;;25.27;;
9968;SDS011;5025;48.890;9.278;2022-12-18T01:41:12;42.57;;;25.77;;
9968;SDS011;5025;48.890;9.278;2022-12-18T01:46:12;43.93;;;25.63;;
9968;SDS011;5025;48.890;9.278;2022-12-18T01:48:38;36.37;;;24.07;;
9968;SDS011;5025;48.890;9.278;2022-12-18T01:51:05;38.93;;;23.63;;
9968;SDS011;5025;48.890;9.278;2022-12-18T01:53:32;44.40;;;25.37;;
9968;SDS011;5025;48.890;9.278;2022-12-18T01:55:58;36.63;;;23.00;;
9968;SDS011;5025;48.890;9.278;2022-12-18T01:58:27;40.23;;;24.47;;
9968;SDS011;5025;48.890;9.278;2022-12-18T02:01:00;37.03;;;23.80;;
9968;SDS011;5025;48.890;9.278;2022-12-18T02:03:26;41.33;;;25.17;;
9968;SDS011;5025;48.890;9.278;2022-12-18T02:08:40;33.37;;;22.50;;
9968;SDS011;5025;48.890;9.278;2022-12-18T02:16:28;40.00;;;23.67;;
9968;SDS011;5025;48.890;9.278;2022-12-18T02:19:00;44.10;;;26.17;;
9968;SDS011;5025;48.890;9.278;2022-12-18T02:27:01;39.27;;;23.57;;
9968;SDS011;5025;48.890;9.278;2022-12-18T02:29:35;38.67;;;23.87;;
9968;SDS011;5025;48.890;9.278;2022-12-18T02:32:06;41.13;;;25.27;;
9968;SDS011;5025;48.890;9.278;2022-12-18T02:34:37;38.93;;;23.67;;
9968;SDS011;5025;48.890;9.278;2022-12-18T02:37:05;40.40;;;23.27;;
9968;SDS011;5025;48.890;9.278;2022-12-18T02:39:36;36.87;;;22.87;;
9968;SDS011;5025;48.890;9.278;2022-12-18T02:42:03;36.33;;;23.23;;
9968;SDS011;5025;48.890;9.278;2022-12-18T02:44:33;38.63;;;23.20;;
9968;SDS011;5025;48.890;9.278;2022-12-18T02:46:59;41.50;;;25.40;;
9968;SDS011;5025;48.890;9.278;2022-12-18T02:49:34;38.90;;;24.03;;
9968;SDS011;5025;48.890;9.278;2022-12-18T02:57:47;37.30;;;23.53;;
9968;SDS011;5025;48.890;9.278;2022-12-18T03:00:20;40.27;;;24.47;;
9968;SDS011;5025;48.890;9.278;2022-12-18T03:02:53;40.47;;;24.27;;
9968;SDS011;5025;48.890;9.278;2022-12-18T03:05:31;41.73;;;24.63;;
9968;SDS011;5025;48.890;9.278;2022-12-18T03:08:10;45.67;;;25.27;;
9968;SDS011;5025;48.890;9.278;2022-12-18T03:10:42;40.80;;;24.70;;
9968;SDS011;5025;48.890;9.278;2022-12-18T03:13:13;42.10;;;24.80;;
9968;SDS011;5025;48.890;9.278;2022-12-18T03:15:49;39.30;;;24.13;;
9968;SDS011;5025;48.890;9.278;2022-12-18T03:18:19;40.67;;;23.37;;
9968;SDS011;5025;48.890;9.278;2022-12-18T03:20:52;37.27;;;22.27;;
9968;SDS011;5025;48.890;9.278;2022-12-18T03:23:23;37.60;;;23.37;;
9968;SDS011;5025;48.890;9.278;2022-12-18T03:25:54;38.03;;;23.90;;
9968;SDS011;5025;48.890;9.278;2022-12-18T03:28:23;39.40;;;24.20;;
9968;SDS011;5025;48.890;9.278;2022-12-18T03:30:50;39.67;;;24.60;;
9968;SDS011;5025;48.890;9.278;2022-12-18T03:33:23;40.30;;;25.47;;
9968;SDS011;5025;48.890;9.278;2022-12-18T03:35:54;37.30;;;23.80;;
9968;SDS011;5025;48.890;9.278;2022-12-18T03:38:20;39.00;;;23.73;;
9968;SDS011;5025;48.890;9.278;2022-12-18T03:41:10;39.50;;;24.23;;
9968;SDS011;5025;48.890;9.278;2022-12-18T03:46:43;36.70;;;22.67;;
9968;SDS011;5025;48.890;9.278;2022-12-18T03:51:59;32.77;;;21.07;;
9968;SDS011;5025;48.890;9.278;2022-12-18T03:54:35;35.37;;;21.63;;
9968;SDS011;5025;48.890;9.278;2022-12-18T03:57:05;31.17;;;20.37;;
9968;SDS011;5025;48.890;9.278;2022-12-18T03:59:35;31.27;;;20.23;;
9968;SDS011;5025;48.890;9.278;2022-12-18T04:02:03;31.43;;;19.53;;
9968;SDS011;5025;48.890;9.278;2022-12-18T04:04:31;37.83;;;21.70;;
9968;SDS011;5025;48.890;9.278;2022-12-18T04:06:59;32.83;;;21.17;;
9968;SDS011;5025;48.890;9.278;2022-12-18T04:09:25;33.60;;;21.03;;
9968;SDS011;5025;48.890;9.278;2022-12-18T04:11:51;38.00;;;21.33;;
9968;SDS011;5025;48.890;9.278;2022-12-18T04:14:17;35.90;;;21.40;;
9968;SDS011;5025;48.890;9.278;2022-12-18T04:16:42;34.73;;;21.57;;
9968;SDS011;5025;48.890;9.278;2022-12-18T04:19:07;32.67;;;20.60;;
9968;SDS011;5025;48.890;9.278;2022-12-18T04:21:33;32.17;;;21.27;;
9968;SDS011;5025;48.890;9.278;2022-12-18T04:23:58;36.10;;;22.53;;
9968;SDS011;5025;48.890;9.278;2022-12-18T04:26:23;33.37;;;21.20;;
9968;SDS011;5025;48.890;9.278;2022-12-18T04:28:49;36.87;;;22.13;;
9968;SDS011;5025;48.890;9.278;2022-12-18T04:31:14;31.30;;;20.00;;
9968;SDS011;5025;48.890;9.278;2022-12-18T04:33:40;31.67;;;20.13;;
9968;SDS011;5025;48.890;9.278;2022-12-18T04:36:05;31.53;;;19.57;;
9968;SDS011;5025;48.890;9.278;2022-12-18T04:38:31;32.50;;;19.97;;
9968;SDS011;5025;48.890;9.278;2022-12-18T04:40:56;34.10;;;19.53;;
9968;SDS011;5025;48.890;9.278;2022-12-18T04:43:21;34.27;;;20.87;;
9968;SDS011;5025;48.890;9.278;2022-12-18T04:45:47;33.67;;;19.73;;
9968;SDS011;5025;48.890;9.278;2022-12-18T04:48:12;30.03;;;18.83;;
9968;SDS011;5025;48.890;9.278;2022-12-18T04:50:37;31.83;;;19.63;;
9968;SDS011;5025;48.890;9.278;2022-12-18T04:53:03;31.67;;;19.63;;
9968;SDS011;5025;48.890;9.278;2022-12-18T04:55:28;31.00;;;18.93;;
9968;SDS011;5025;48.890;9.278;2022-12-18T04:57:54;32.03;;;18.50;;
9968;SDS011;5025;48.890;9.278;2022-12-18T05:00:19;31.47;;;20.13;;
9968;SDS011;5025;48.890;9.278;2022-12-18T05:02:45;30.20;;;19.13;;
9968;SDS011;5025;48.890;9.278;2022-12-18T05:05:10;31.53;;;19.10;;
9968;SDS011;5025;48.890;9.278;2022-12-18T05:07:36;28.13;;;18.33;;
9968;SDS011;5025;48.890;9.278;2022-12-18T05:10:02;31.53;;;18.60;;
9968;SDS011;5025;48.890;9.278;2022-12-18T05:12:28;31.00;;;18.47;;
9968;SDS011;5025;48.890;9.278;2022-12-18T05:14:53;30.50;;;18.37;;
9968;SDS011;5025;48.890;9.278;2022-12-18T05:17:18;25.60;;;16.43;;
9968;SDS011;5025;48.890;9.278;2022-12-18T05:19:43;26.53;;;16.67;;
9968;SDS011;5025;48.890;9.278;2022-12-18T05:22:09;26.33;;;16.47;;
9968;SDS011;5025;48.890;9.278;2022-12-18T05:24:34;25.17;;;15.77;;
9968;SDS011;5025;48.890;9.278;2022-12-18T05:27:00;26.53;;;16.07;;
9968;SDS011;5025;48.890;9.278;2022-12-18T05:29:25;25.27;;;15.67;;
9968;SDS011;5025;48.890;9.278;2022-12-18T05:31:51;24.83;;;16.00;;
9968;SDS011;5025;48.890;9.278;2022-12-18T05:34:16;22.17;;;14.60;;
9968;SDS011;5025;48.890;9.278;2022-12-18T05:36:41;45.67;;;24.67;;
9968;SDS011;5025;48.890;9.278;2022-12-18T05:39:07;47.63;;;26.87;;
9968;SDS011;5025;48.890;9.278;2022-12-18T05:41:32;56.43;;;29.50;;
9968;SDS011;5025;48.890;9.278;2022-12-18T05:43:58;49.73;;;25.37;;
9968;SDS011;5025;48.890;9.278;2022-12-18T05:46:23;42.80;;;24.13;;
9968;SDS011;5025;48.890;9.278;2022-12-18T05:48:49;49.87;;;28.40;;
9968;SDS011;5025;48.890;9.278;2022-12-18T05:51:16;45.23;;;25.53;;
9968;SDS011;5025;48.890;9.278;2022-12-18T05:53:43;40.50;;;23.13;;
9968;SDS011;5025;48.890;9.278;2022-12-18T05:56:10;40.53;;;23.13;;
9968;SDS011;5025;48.890;9.278;2022-12-18T05:58:37;35.90;;;20.93;;
9968;SDS011;5025;48.890;9.278;2022-12-18T06:01:10;37.13;;;21.53;;
9968;SDS011;5025;48.890;9.278;2022-12-18T06:03:37;32.73;;;20.27;;
9968;SDS011;5025;48.890;9.278;2022-12-18T06:06:02;32.87;;;19.43;;
9968;SDS011;5025;48.890;9.278;2022-12-18T06:08:28;31.10;;;20.07;;
9968;SDS011;5025;48.890;9.278;2022-12-18T06:10:53;33.23;;;20.77;;
9968;SDS011;5025;48.890;9.278;2022-12-18T06:13:19;29.80;;;18.40;;
9968;SDS011;5025;48.890;9.278;2022-12-18T06:15:45;32.57;;;18.53;;
9968;SDS011;5025;48.890;9.278;2022-12-18T06:18:10;31.20;;;19.27;;
9968;SDS011;5025;48.890;9.278;2022-12-18T06:20:35;30.07;;;18.30;;
9968;SDS011;5025;48.890;9.278;2022-12-18T06:23:02;30.90;;;19.10;;
9968;SDS011;5025;48.890;9.278;2022-12-18T06:25:27;33.23;;;19.73;;
9968;SDS011;5025;48.890;9.278;2022-12-18T06:27:53;28.57;;;19.17;;
9968;SDS011;5025;48.890;9.278;2022-12-18T06:30:18;34.83;;;20.77;;
9968;SDS011;5025;48.890;9.278;2022-12-18T06:32:44;31.47;;;19.30;;
9968;SDS011;5025;48.890;9.278;2022-12-18T06:35:09;29.30;;;18.33;;
9968;SDS011;5025;48.890;9.278;2022-12-18T06:37:34;31.47;;;19.73;;
9968;SDS011;5025;48.890;9.278;2022-12-18T06:40:00;31.43;;;19.00;;
9968;SDS011;5025;48.890;9.278;2022-12-18T06:42:25;31.77;;;20.57;;
9968;SDS011;5025;48.890;9.278;2022-12-18T06:44:51;31.30;;;19.10;;
9968;SDS011;5025;48.890;9.278;2022-12-18T06:47:16;31.13;;;19.13;;
9968;SDS011;5025;48.890;9.278;2022-12-18T06:49:41;28.60;;;18.30;;
9968;SDS011;5025;48.890;9.278;2022-12-18T06:52:08;29.27;;;18.33;;
9968;SDS011;5025;48.890;9.278;2022-12-18T06:54:33;29.13;;;18.43;;
9968;SDS011;5025;48.890;9.278;2022-12-18T06:56:58;35.43;;;19.57;;
9968;SDS011;5025;48.890;9.278;2022-12-18T06:59:24;28.70;;;17.63;;
9968;SDS011;5025;48.890;9.278;2022-12-18T07:01:49;25.57;;;16.87;;
9968;SDS011;5025;48.890;9.278;2022-12-18T07:04:14;28.33;;;16.50;;
9968;SDS011;5025;48.890;9.278;2022-12-18T07:06:40;29.67;;;17.47;;
9968;SDS011;5025;48.890;9.278;2022-12-18T07:09:05;30.97;;;18.40;;
9968;SDS011;5025;48.890;9.278;2022-12-18T07:11:32;33.13;;;19.40;;
9968;SDS011;5025;48.890;9.278;2022-12-18T07:13:57;29.17;;;18.27;;
9968;SDS011;5025;48.890;9.278;2022-12-18T07:16:24;33.90;;;18.60;;
9968;SDS011;5025;48.890;9.278;2022-12-18T07:18:49;29.17;;;17.53;;
9968;SDS011;5025;48.890;9.278;2022-12-18T07:21:16;32.23;;;19.17;;
9968;SDS011;5025;48.890;9.278;2022-12-18T07:23:43;29.07;;;17.03;;
9968;SDS011;5025;48.890;9.278;2022-12-18T07:26:12;27.30;;;17.30;;
9968;SDS011;5025;48.890;9.278;2022-12-18T07:28:39;27.37;;;16.83;;
9968;SDS011;5025;48.890;9.278;2022-12-18T07:31:06;29.40;;;17.70;;
9968;SDS011;5025;48.890;9.278;2022-12-18T07:33:33;28.67;;;18.10;;
9968;SDS011;5025;48.890;9.278;2022-12-18T07:35:59;28.00;;;16.67;;
9968;SDS011;5025;48.890;9.278;2022-12-18T07:38:25;24.87;;;15.13;;
9968;SDS011;5025;48.890;9.278;2022-12-18T07:40:50;31.77;;;18.33;;
9968;SDS011;5025;48.890;9.278;2022-12-18T07:43:16;25.60;;;15.93;;
9968;SDS011;5025;48.890;9.278;2022-12-18T07:45:41;27.10;;;17.13;;
9968;SDS011;5025;48.890;9.278;2022-12-18T07:48:07;29.10;;;17.40;;
9968;SDS011;5025;48.890;9.278;2022-12-18T07:50:32;32.67;;;19.70;;
9968;SDS011;5025;48.890;9.278;2022-12-18T07:52:57;30.97;;;19.00;;
9968;SDS011;5025;48.890;9.278;2022-12-18T07:55:23;26.47;;;16.23;;
9968;SDS011;5025;48.890;9.278;2022-12-18T07:57:48;30.67;;;18.03;;
9968;SDS011;5025;48.890;9.278;2022-12-18T08:00:13;24.47;;;15.77;;
9968;SDS011;5025;48.890;9.278;2022-12-18T08:02:39;30.73;;;18.70;;
9968;SDS011;5025;48.890;9.278;2022-12-18T08:05:04;28.13;;;17.23;;
9968;SDS011;5025;48.890;9.278;2022-12-18T08:07:30;27.87;;;17.60;;
9968;SDS011;5025;48.890;9.278;2022-12-18T08:09:55;28.93;;;17.53;;
9968;SDS011;5025;48.890;9.278;2022-12-18T08:12:20;29.00;;;17.70;;
9968;SDS011;5025;48.890;9.278;2022-12-18T08:14:46;28.47;;;17.40;;
9968;SDS011;5025;48.890;9.278;2022-12-18T08:17:11;33.43;;;20.17;;
9968;SDS011;5025;48.890;9.278;2022-12-18T08:19:36;35.93;;;21.90;;
9968;SDS011;5025;48.890;9.278;2022-12-18T08:22:02;38.80;;;21.80;;
9968;SDS011;5025;48.890;9.278;2022-12-18T08:24:27;33.10;;;21.93;;
9968;SDS011;5025;48.890;9.278;2022-12-18T08:26:52;37.23;;;22.77;;
9968;SDS011;5025;48.890;9.278;2022-12-18T08:29:18;40.03;;;22.80;;
9968;SDS011;5025;48.890;9.278;2022-12-18T08:31:43;40.00;;;24.40;;
9968;SDS011;5025;48.890;9.278;2022-12-18T08:34:08;39.47;;;24.67;;
9968;SDS011;5025;48.890;9.278;2022-12-18T08:36:34;38.47;;;24.63;;
9968;SDS011;5025;48.890;9.278;2022-12-18T08:39:00;36.63;;;23.37;;
9968;SDS011;5025;48.890;9.278;2022-12-18T08:41:25;35.83;;;22.77;;
9968;SDS011;5025;48.890;9.278;2022-12-18T08:43:50;39.10;;;25.00;;
9968;SDS011;5025;48.890;9.278;2022-12-18T08:46:38;34.07;;;22.57;;
9968;SDS011;5025;48.890;9.278;2022-12-18T08:49:05;37.63;;;22.80;;
9968;SDS011;5025;48.890;9.278;2022-12-18T08:51:32;37.83;;;22.93;;
9968;SDS011;5025;48.890;9.278;2022-12-18T08:53:57;36.70;;;22.37;;
9968;SDS011;5025;48.890;9.278;2022-12-18T08:56:23;36.37;;;21.80;;
9968;SDS011;5025;48.890;9.278;2022-12-18T08:58:51;32.37;;;21.33;;
9968;SDS011;5025;48.890;9.278;2022-12-18T09:01:19;38.53;;;23.00;;
9968;SDS011;5025;48.890;9.278;2022-12-18T09:03:45;35.07;;;21.13;;
9968;SDS011;5025;48.890;9.278;2022-12-18T09:06:13;39.10;;;23.43;;
9968;SDS011;5025;48.890;9.278;2022-12-18T09:08:40;36.03;;;22.97;;
9968;SDS011;5025;48.890;9.278;2022-12-18T09:11:09;34.87;;;21.80;;
9968;SDS011;5025;48.890;9.278;2022-12-18T09:13:37;37.27;;;22.47;;
9968;SDS011;5025;48.890;9.278;2022-12-18T09:16:03;35.23;;;21.67;;
9968;SDS011;5025;48.890;9.278;2022-12-18T09:18:28;36.97;;;22.87;;
9968;SDS011;5025;48.890;9.278;2022-12-18T09:20:53;32.53;;;21.93;;
9968;SDS011;5025;48.890;9.278;2022-12-18T09:23:19;34.00;;;21.63;;
9968;SDS011;5025;48.890;9.278;2022-12-18T09:25:45;38.33;;;22.63;;
9968;SDS011;5025;48.890;9.278;2022-12-18T09:28:11;35.07;;;22.30;;
9968;SDS011;5025;48.890;9.278;2022-12-18T09:30:39;36.03;;;23.67;;
9968;SDS011;5025;48.890;9.278;2022-12-18T09:33:05;36.03;;;23.30;;
9968;SDS011;5025;48.890;9.278;2022-12-18T09:35:30;35.27;;;22.97;;
9968;SDS011;5025;48.890;9.278;2022-12-18T09:37:55;37.87;;;23.30;;
9968;SDS011;5025;48.890;9.278;2022-12-18T09:40:22;30.77;;;20.20;;
9968;SDS011;5025;48.890;9.278;2022-12-18T09:43:00;34.70;;;22.60;;
9968;SDS011;5025;48.890;9.278;2022-12-18T09:45:30;41.07;;;26.17;;
9968;SDS011;5025;48.890;9.278;2022-12-18T09:48:03;40.27;;;25.27;;
9968;SDS011;5025;48.890;9.278;2022-12-18T09:50:32;40.77;;;26.53;;
9968;SDS011;5025;48.890;9.278;2022-12-18T09:53:12;40.97;;;25.93;;
9968;SDS011;5025;48.890;9.278;2022-12-18T09:55:45;39.37;;;24.37;;
9968;SDS011;5025;48.890;9.278;2022-12-18T10:00:52;39.07;;;26.07;;
9968;SDS011;5025;48.890;9.278;2022-12-18T10:03:18;42.83;;;26.33;;
9968;SDS011;5025;48.890;9.278;2022-12-18T10:14:09;38.90;;;25.10;;
9968;SDS011;5025;48.890;9.278;2022-12-18T10:16:51;40.40;;;25.83;;
9968;SDS011;5025;48.890;9.278;2022-12-18T10:25:15;40.80;;;25.80;;
9968;SDS011;5025;48.890;9.278;2022-12-18T10:27:45;44.07;;;25.43;;
9968;SDS011;5025;48.890;9.278;2022-12-18T10:30:12;40.67;;;26.80;;
9968;SDS011;5025;48.890;9.278;2022-12-18T10:32:39;40.33;;;25.47;;
9968;SDS011;5025;48.890;9.278;2022-12-18T10:35:07;43.30;;;26.07;;
9968;SDS011;5025;48.890;9.278;2022-12-18T10:37:58;43.10;;;26.23;;
9968;SDS011;5025;48.890;9.278;2022-12-18T10:40:25;40.13;;;25.10;;
9968;SDS011;5025;48.890;9.278;2022-12-18T10:43:11;40.67;;;26.17;;
9968;SDS011;5025;48.890;9.278;2022-12-18T10:45:38;38.37;;;24.77;;
9968;SDS011;5025;48.890;9.278;2022-12-18T10:48:04;38.17;;;23.73;;
9968;SDS011;5025;48.890;9.278;2022-12-18T10:50:32;40.07;;;26.10;;
9968;SDS011;5025;48.890;9.278;2022-12-18T10:52:59;40.30;;;26.30;;
9968;SDS011;5025;48.890;9.278;2022-12-18T10:55:27;40.47;;;25.83;;
9968;SDS011;5025;48.890;9.278;2022-12-18T10:58:12;39.53;;;24.97;;
9968;SDS011;5025;48.890;9.278;2022-12-18T11:00:41;38.83;;;24.83;;
9968;SDS011;5025;48.890;9.278;2022-12-18T11:03:28;35.80;;;23.87;;
9968;SDS011;5025;48.890;9.278;2022-12-18T11:06:11;34.13;;;22.77;;
9968;SDS011;5025;48.890;9.278;2022-12-18T11:08:41;46.13;;;29.00;;
9968;SDS011;5025;48.890;9.278;2022-12-18T11:11:41;46.93;;;29.37;;
9968;SDS011;5025;48.890;9.278;2022-12-18T11:14:15;43.53;;;28.13;;
9968;SDS011;5025;48.890;9.278;2022-12-18T11:16:49;43.47;;;26.73;;
9968;SDS011;5025;48.890;9.278;2022-12-18T11:19:26;40.27;;;25.60;;
9968;SDS011;5025;48.890;9.278;2022-12-18T11:21:56;39.10;;;24.60;;
9968;SDS011;5025;48.890;9.278;2022-12-18T11:24:32;40.87;;;26.43;;
9968;SDS011;5025;48.890;9.278;2022-12-18T11:27:00;38.67;;;24.20;;
9968;SDS011;5025;48.890;9.278;2022-12-18T11:29:37;42.40;;;26.97;;
9968;SDS011;5025;48.890;9.278;2022-12-18T11:35:14;39.80;;;24.47;;
9968;SDS011;5025;48.890;9.278;2022-12-18T11:37:59;41.73;;;26.17;;
9968;SDS011;5025;48.890;9.278;2022-12-18T11:40:34;37.07;;;24.93;;
9968;SDS011;5025;48.890;9.278;2022-12-18T11:43:14;40.07;;;24.67;;
9968;SDS011;5025;48.890;9.278;2022-12-18T11:45:49;45.40;;;27.57;;
9968;SDS011;5025;48.890;9.278;2022-12-18T11:50:58;42.43;;;26.37;;
9968;SDS011;5025;48.890;9.278;2022-12-18T11:53:26;45.73;;;28.37;;
9968;SDS011;5025;48.890;9.278;2022-12-18T12:01:15;40.97;;;26.00;;
9968;SDS011;5025;48.890;9.278;2022-12-18T12:04:04;43.00;;;28.07;;
9968;SDS011;5025;48.890;9.278;2022-12-18T12:09:35;41.70;;;26.77;;
9968;SDS011;5025;48.890;9.278;2022-12-18T12:15:27;39.47;;;25.67;;
9968;SDS011;5025;48.890;9.278;2022-12-18T12:21:02;39.73;;;25.67;;
9968;SDS011;5025;48.890;9.278;2022-12-18T12:26:09;42.70;;;27.60;;
9968;SDS011;5025;48.890;9.278;2022-12-18T12:29:09;44.47;;;27.63;;
9968;SDS011;5025;48.890;9.278;2022-12-18T12:37:20;42.03;;;26.73;;
9968;SDS011;5025;48.890;9.278;2022-12-18T12:39:57;39.17;;;24.77;;
9968;SDS011;5025;48.890;9.278;2022-12-18T12:45:20;41.83;;;26.73;;
9968;SDS011;5025;48.890;9.278;2022-12-18T12:47:50;35.70;;;24.33;;
9968;SDS011;5025;48.890;9.278;2022-12-18T12:50:18;37.40;;;25.23;;
9968;SDS011;5025;48.890;9.278;2022-12-18T12:52:47;38.87;;;24.67;;
9968;SDS011;5025;48.890;9.278;2022-12-18T12:55:23;38.33;;;25.33;;
9968;SDS011;5025;48.890;9.278;2022-12-18T12:57:59;39.07;;;25.37;;
9968;SDS011;5025;48.890;9.278;2022-12-18T13:00:39;39.97;;;24.87;;
9968;SDS011;5025;48.890;9.278;2022-12-18T13:05:54;36.50;;;24.47;;
9968;SDS011;5025;48.890;9.278;2022-12-18T13:08:29;36.10;;;24.57;;
9968;SDS011;5025;48.890;9.278;2022-12-18T13:10:59;34.70;;;23.67;;
9968;SDS011;5025;48.890;9.278;2022-12-18T13:13:51;36.37;;;23.10;;
9968;SDS011;5025;48.890;9.278;2022-12-18T13:16:19;37.00;;;24.70;;
9968;SDS011;5025;48.890;9.278;2022-12-18T13:18:52;37.47;;;23.93;;
9968;SDS011;5025;48.890;9.278;2022-12-18T13:21:23;36.27;;;24.33;;
9968;SDS011;5025;48.890;9.278;2022-12-18T13:23:53;35.50;;;22.90;;
9968;SDS011;5025;48.890;9.278;2022-12-18T13:28:50;37.63;;;24.90;;
9968;SDS011;5025;48.890;9.278;2022-12-18T13:34:23;35.07;;;22.70;;
9968;SDS011;5025;48.890;9.278;2022-12-18T13:36:50;33.00;;;21.93;;
9968;SDS011;5025;48.890;9.278;2022-12-18T13:41:42;32.60;;;21.97;;
9968;SDS011;5025;48.890;9.278;2022-12-18T13:44:13;32.40;;;22.27;;
9968;SDS011;5025;48.890;9.278;2022-12-18T13:46:50;34.40;;;22.80;;
9968;SDS011;5025;48.890;9.278;2022-12-18T13:49:24;33.93;;;22.97;;
9968;SDS011;5025;48.890;9.278;2022-12-18T13:51:55;33.67;;;22.50;;
9968;SDS011;5025;48.890;9.278;2022-12-18T13:54:28;35.90;;;23.07;;
9968;SDS011;5025;48.890;9.278;2022-12-18T13:57:00;34.63;;;23.00;;
9968;SDS011;5025;48.890;9.278;2022-12-18T13:59:32;34.30;;;23.20;;
9968;SDS011;5025;48.890;9.278;2022-12-18T14:02:00;34.07;;;22.67;;
9968;SDS011;5025;48.890;9.278;2022-12-18T14:04:31;33.60;;;23.20;;
9968;SDS011;5025;48.890;9.278;2022-12-18T14:09:46;33.80;;;23.00;;
9968;SDS011;5025;48.890;9.278;2022-12-18T14:12:21;34.17;;;23.47;;
9968;SDS011;5025;48.890;9.278;2022-12-18T14:17:47;33.57;;;22.13;;
9968;SDS011;5025;48.890;9.278;2022-12-18T14:20:15;30.37;;;20.67;;
9968;SDS011;5025;48.890;9.278;2022-12-18T14:22:46;30.50;;;21.07;;
9968;SDS011;5025;48.890;9.278;2022-12-18T14:27:49;30.83;;;21.03;;
9968;SDS011;5025;48.890;9.278;2022-12-18T14:30:37;27.27;;;19.47;;
9968;SDS011;5025;48.890;9.278;2022-12-18T14:35:33;27.97;;;18.87;;
9968;SDS011;5025;48.890;9.278;2022-12-18T14:38:11;27.20;;;18.47;;
9968;SDS011;5025;48.890;9.278;2022-12-18T14:40:42;28.80;;;19.70;;
9968;SDS011;5025;48.890;9.278;2022-12-18T14:43:10;27.77;;;18.93;;
9968;SDS011;5025;48.890;9.278;2022-12-18T14:45:36;29.80;;;20.63;;
9968;SDS011;5025;48.890;9.278;2022-12-18T14:48:07;26.37;;;19.23;;
9968;SDS011;5025;48.890;9.278;2022-12-18T14:50:33;26.13;;;19.43;;
9968;SDS011;5025;48.890;9.278;2022-12-18T14:52:59;27.27;;;19.03;;
9968;SDS011;5025;48.890;9.278;2022-12-18T14:55:24;26.27;;;18.77;;
9968;SDS011;5025;48.890;9.278;2022-12-18T14:57:50;26.53;;;19.07;;
9968;SDS011;5025;48.890;9.278;2022-12-18T15:00:20;27.73;;;19.43;;
9968;SDS011;5025;48.890;9.278;2022-12-18T15:02:51;30.40;;;20.60;;
9968;SDS011;5025;48.890;9.278;2022-12-18T15:05:20;26.47;;;17.97;;
9968;SDS011;5025;48.890;9.278;2022-12-18T15:07:51;23.57;;;16.33;;
9968;SDS011;5025;48.890;9.278;2022-12-18T15:20:33;29.33;;;19.90;;
9968;SDS011;5025;48.890;9.278;2022-12-18T15:23:21;26.40;;;19.00;;
9968;SDS011;5025;48.890;9.278;2022-12-18T15:25:54;27.80;;;18.03;;
9968;SDS011;5025;48.890;9.278;2022-12-18T15:28:23;28.50;;;18.40;;
9968;SDS011;5025;48.890;9.278;2022-12-18T15:31:02;29.00;;;20.37;;
9968;SDS011;5025;48.890;9.278;2022-12-18T15:33:32;33.57;;;21.17;;
9968;SDS011;5025;48.890;9.278;2022-12-18T15:36:00;32.90;;;21.33;;
9968;SDS011;5025;48.890;9.278;2022-12-18T15:38:28;33.20;;;21.67;;
9968;SDS011;5025;48.890;9.278;2022-12-18T15:40:54;32.57;;;21.63;;
9968;SDS011;5025;48.890;9.278;2022-12-18T15:43:21;30.97;;;20.53;;
9968;SDS011;5025;48.890;9.278;2022-12-18T15:46:32;30.27;;;19.63;;
9968;SDS011;5025;48.890;9.278;2022-12-18T15:48:52;33.87;;;20.60;;
9968;SDS011;5025;48.890;9.278;2022-12-18T15:51:28;29.77;;;19.43;;
9968;SDS011;5025;48.890;9.278;2022-12-18T15:54:00;32.03;;;20.60;;
9968;SDS011;5025;48.890;9.278;2022-12-18T15:56:31;31.70;;;20.70;;
9968;SDS011;5025;48.890;9.278;2022-12-18T15:59:17;32.97;;;21.00;;
9968;SDS011;5025;48.890;9.278;2022-12-18T16:01:44;29.63;;;20.30;;
9968;SDS011;5025;48.890;9.278;2022-12-18T16:04:12;33.77;;;21.50;;
9968;SDS011;5025;48.890;9.278;2022-12-18T16:06:39;32.97;;;21.07;;
9968;SDS011;5025;48.890;9.278;2022-12-18T16:09:05;31.73;;;20.90;;
9968;SDS011;5025;48.890;9.278;2022-12-18T16:11:32;35.53;;;22.00;;
9968;SDS011;5025;48.890;9.278;2022-12-18T16:14:15;33.00;;;21.57;;
9968;SDS011;5025;48.890;9.278;2022-12-18T16:16:46;30.23;;;19.57;;
9968;SDS011;5025;48.890;9.278;2022-12-18T16:19:16;33.90;;;21.33;;
9968;SDS011;5025;48.890;9.278;2022-12-18T16:21:42;31.97;;;20.50;;
9968;SDS011;5025;48.890;9.278;2022-12-18T16:24:18;29.73;;;19.87;;
9968;SDS011;5025;48.890;9.278;2022-12-18T16:26:47;30.17;;;19.57;;
9968;SDS011;5025;48.890;9.278;2022-12-18T16:29:13;31.67;;;20.97;;
9968;SDS011;5025;48.890;9.278;2022-12-18T16:31:39;29.77;;;20.57;;
9968;SDS011;5025;48.890;9.278;2022-12-18T16:34:20;33.30;;;21.20;;
9968;SDS011;5025;48.890;9.278;2022-12-18T16:36:48;34.87;;;21.57;;
9968;SDS011;5025;48.890;9.278;2022-12-18T16:39:14;33.90;;;21.93;;
9968;SDS011;5025;48.890;9.278;2022-12-18T16:41:40;36.43;;;23.07;;
9968;SDS011;5025;48.890;9.278;2022-12-18T16:44:05;33.10;;;21.93;;
9968;SDS011;5025;48.890;9.278;2022-12-18T16:46:31;32.93;;;21.83;;
9968;SDS011;5025;48.890;9.278;2022-12-18T16:48:57;34.43;;;21.73;;